Time;durP1;ratioP1;P1;durP2;ratioP2;P2;SDS_P1;SDS_P2;PMS_P1;PMS_P2;Temp;Humidity;BMP_temperature;BMP_pressure;BME280_temperature;BME280_humidity;BME280_pressure;Samples;Min_cycle;Max_cycle;Signal;HPM_P1;HPM_P2
2022/01/04 00:01:28;;;;;;;1.42;0.63;;;;;;;;;;5114536;28;20077;-81
2022/01/04 00:03:54;;;;;;;1.70;0.60;;;;;;;;;;5096162;28;20022;-82
2022/01/04 00:06:20;;;;;;;1.90;0.65;;;;;;;;;;5113958;28;20503;-82
2022/01/04 00:08:46;;;;;;;3.35;0.82;;;;;;;;;;5114170;28;20035;-82
2022/01/04 00:11:20;;;;;;;2.20;0.85;;;;;;;;;;5095604;28;20114;-83
2022/01/04 00:13:47;;;;;;;1.30;0.68;;;;;;;;;;5095811;28;20096;-82
2022/01/04 00:16:13;;;;;;;1.48;0.52;;;;;;;;;;5113750;28;20023;-83
2022/01/04 00:18:40;;;;;;;2.05;0.93;;;;;;;;;;5113832;28;20081;-82
2022/01/04 00:21:06;;;;;;;1.60;0.77;;;;;;;;;;5095532;28;20092;-82
2022/01/04 00:23:32;;;;;;;2.67;0.85;;;;;;;;;;5095588;28;20034;-82
2022/01/04 00:25:58;;;;;;;1.55;0.70;;;;;;;;;;5113615;28;20020;-80
2022/01/04 00:28:25;;;;;;;0.60;0.50;;;;;;;;;;5114091;28;20106;-81
2022/01/04 00:30:51;;;;;;;2.40;0.70;;;;;;;;;;5113839;28;20020;-80
2022/01/04 00:33:17;;;;;;;1.98;1.02;;;;;;;;;;5113358;28;20027;-81
2022/01/04 00:35:44;;;;;;;1.73;0.70;;;;;;;;;;5113744;28;20094;-80
2022/01/04 00:38:10;;;;;;;1.55;0.90;;;;;;;;;;5113511;28;20088;-80
2022/01/04 00:40:36;;;;;;;2.28;0.82;;;;;;;;;;5113058;28;20046;-80
2022/01/04 00:43:03;;;;;;;1.10;0.80;;;;;;;;;;5112869;28;20031;-80
2022/01/04 00:45:35;;;;;;;2.42;0.60;;;;;;;;;;5113370;28;20030;-80
2022/01/04 00:50:29;;;;;;;2.45;0.90;;;;;;;;;;5113636;28;20383;-82
2022/01/04 00:52:55;;;;;;;2.05;0.82;;;;;;;;;;5113612;28;20487;-82
2022/01/04 00:55:21;;;;;;;1.38;0.60;;;;;;;;;;5095015;28;20475;-81
2022/01/04 00:57:47;;;;;;;1.63;0.98;;;;;;;;;;5113156;28;20386;-81
2022/01/04 01:00:14;;;;;;;1.52;0.60;;;;;;;;;;5112905;28;20028;-81
2022/01/04 01:02:40;;;;;;;1.40;0.77;;;;;;;;;;5113190;28;20024;-80
2022/01/04 01:05:07;;;;;;;1.80;0.60;;;;;;;;;;5112761;28;20027;-81
2022/01/04 01:07:34;;;;;;;2.67;0.80;;;;;;;;;;5113000;28;20027;-81
2022/01/04 01:12:44;;;;;;;2.30;0.60;;;;;;;;;;5113242;28;20038;-80
2022/01/04 01:15:11;;;;;;;0.93;0.50;;;;;;;;;;5112761;28;20019;-80
2022/01/04 01:17:37;;;;;;;1.00;0.60;;;;;;;;;;5112888;28;20540;-81
2022/01/04 01:20:04;;;;;;;0.98;0.60;;;;;;;;;;5112631;28;20028;-81
2022/01/04 01:22:30;;;;;;;2.05;0.68;;;;;;;;;;5112761;28;20048;-81
2022/01/04 01:24:56;;;;;;;1.50;0.60;;;;;;;;;;5113094;28;20102;-80
2022/01/04 01:27:22;;;;;;;1.20;0.73;;;;;;;;;;5112459;28;20502;-80
2022/01/04 01:29:47;;;;;;;1.45;0.60;;;17.60;81.50;;;;;;5112602;28;20027;-81
2022/01/04 01:32:13;;;;;;;1.13;0.60;;;17.20;83.70;;;;;;5093988;28;20027;-81
2022/01/04 01:34:39;;;;;;;1.33;0.50;;;17.10;83.90;;;;;;5094207;28;20026;-82
2022/01/04 01:37:05;;;;;;;0.85;0.43;;;17.20;83.70;;;;;;5093985;28;20035;-82
2022/01/04 01:39:30;;;;;;;1.52;0.70;;;17.10;83.60;;;;;;5094058;28;20020;-81
2022/01/04 01:41:56;;;;;;;1.70;0.60;;;17.10;83.60;;;;;;5112687;28;20069;-82
2022/01/04 01:44:22;;;;;;;1.52;0.55;;;17.10;83.60;;;;;;5093685;28;20375;-82
2022/01/04 01:46:48;;;;;;;1.70;0.70;;;17.10;83.60;;;;;;5112396;28;20027;-83
2022/01/04 01:49:14;;;;;;;0.85;0.50;;;17.10;83.60;;;;;;5111975;28;20042;-80
2022/01/04 01:51:40;;;;;;;1.30;0.50;;;17.10;83.50;;;;;;5094010;28;20060;-81
2022/01/04 01:54:06;;;;;;;1.95;0.70;;;17.10;83.40;;;;;;5111783;28;20020;-81
2022/01/04 01:56:31;;;;;;;1.75;0.80;;;17.10;83.40;;;;;;5112099;28;20020;-81
2022/01/04 01:58:57;;;;;;;0.60;0.50;;;17.10;83.30;;;;;;5112374;28;20038;-80
2022/01/04 02:01:24;;;;;;;1.08;0.60;;;17.10;83.30;;;;;;5112456;28;20026;-80
2022/01/04 02:03:49;;;;;;;0.82;0.68;;;17.10;83.30;;;;;;5093847;28;20024;-80
2022/01/04 02:06:17;;;;;;;0.77;0.50;;;17.10;83.20;;;;;;5111848;28;20153;-80
2022/01/04 02:08:42;;;;;;;1.60;0.50;;;17.10;83.20;;;;;;5111955;28;20040;-80
2022/01/04 02:11:08;;;;;;;1.75;0.45;;;17.10;83.20;;;;;;5111723;28;20387;-80
2022/01/04 02:13:34;;;;;;;0.90;0.45;;;17.10;83.80;;;;;;5111842;28;20471;-81
2022/01/04 02:16:02;;;;;;;1.35;0.45;;;17.10;83.70;;;;;;5111660;28;20093;-80
2022/01/04 02:18:28;;;;;;;1.20;0.73;;;17.10;83.00;;;;;;5111823;28;20026;-81
2022/01/04 02:20:54;;;;;;;0.98;0.47;;;17.10;82.90;;;;;;5112157;28;20110;-81
2022/01/04 02:23:19;;;;;;;1.20;0.50;;;17.10;82.90;;;;;;5111504;28;20019;-81
2022/01/04 02:25:46;;;;;;;1.77;0.68;;;17.10;82.90;;;;;;5093597;28;20526;-81
2022/01/04 02:28:12;;;;;;;1.08;0.40;;;17.10;82.90;;;;;;5111348;28;20119;-81
2022/01/04 02:30:38;;;;;;;1.00;0.40;;;17.10;82.80;;;;;;5111765;28;20102;-81
2022/01/04 02:33:03;;;;;;;1.50;0.70;;;17.10;82.80;;;;;;5111363;28;20390;-81
2022/01/04 02:35:31;;;;;;;1.13;0.52;;;17.10;82.70;;;;;;5111636;28;20024;-81
2022/01/04 02:37:58;;;;;;;0.80;0.60;;;17.10;82.70;;;;;;5111985;28;20019;-81
2022/01/04 02:40:25;;;;;;;0.88;0.43;;;17.00;82.70;;;;;;5111960;28;20027;-80
2022/01/04 02:42:52;;;;;;;2.47;0.75;;;17.10;82.80;;;;;;5111680;28;20060;-81
2022/01/04 02:45:17;;;;;;;0.77;0.50;;;17.10;82.70;;;;;;5111054;28;20895;-82
2022/01/04 02:47:43;;;;;;;1.42;0.57;;;17.00;82.70;;;;;;5111430;28;20032;-81
2022/01/04 02:50:10;;;;;;;0.95;0.40;;;17.10;82.80;;;;;;5111267;28;20038;-81
2022/01/04 02:52:38;;;;;;;2.10;0.63;;;17.00;82.60;;;;;;5111862;28;20429;-81
2022/01/04 02:55:06;;;;;;;3.10;0.70;;;17.00;82.50;;;;;;5111334;28;20110;-81
2022/01/04 02:57:32;;;;;;;0.80;0.43;;;17.10;83.30;;;;;;5111400;28;20062;-82
2022/01/04 02:59:57;;;;;;;0.70;0.40;;;17.10;82.50;;;;;;5111622;28;20056;-82
2022/01/04 03:02:24;;;;;;;0.68;0.30;;;17.10;82.50;;;;;;5111745;28;20023;-81
2022/01/04 03:04:49;;;;;;;0.80;0.50;;;17.10;82.40;;;;;;5112904;28;20056;-81
2022/01/04 03:07:15;;;;;;;1.02;0.40;;;17.10;82.30;;;;;;5096966;28;20019;-82
2022/01/04 03:09:41;;;;;;;0.80;0.40;;;17.10;82.20;;;;;;5115333;28;20059;-81
2022/01/04 03:12:07;;;;;;;1.65;0.60;;;17.10;82.20;;;;;;5115068;28;20483;-83
2022/01/04 03:14:34;;;;;;;1.42;0.47;;;17.10;82.20;;;;;;5115174;28;20024;-83
2022/01/04 03:17:00;;;;;;;1.10;0.50;;;17.00;82.10;;;;;;5115058;28;20098;-82
2022/01/04 03:19:25;;;;;;;1.23;0.40;;;17.10;82.10;;;;;;5115579;28;20098;-83
2022/01/04 03:21:51;;;;;;;0.60;0.28;;;17.10;82.20;;;;;;5115094;28;20424;-82
2022/01/04 03:24:17;;;;;;;2.03;0.60;;;17.10;82.20;;;;;;5096489;28;20359;-82
2022/01/04 03:26:43;;;;;;;0.70;0.40;;;17.10;82.10;;;;;;5115189;28;20051;-82
2022/01/04 03:29:11;;;;;;;1.10;0.50;;;17.10;82.10;;;;;;5096361;28;20497;-82
2022/01/04 03:31:37;;;;;;;1.30;0.50;;;17.10;82.10;;;;;;5115000;28;20027;-82
2022/01/04 03:34:04;;;;;;;0.95;0.50;;;17.10;82.00;;;;;;5096481;28;20023;-83
2022/01/04 03:36:29;;;;;;;0.63;0.40;;;17.10;82.10;;;;;;5114717;28;20456;-82
2022/01/04 03:38:57;;;;;;;0.88;0.50;;;17.10;82.00;;;;;;5115125;28;20047;-83
2022/01/04 03:41:24;;;;;;;0.80;0.50;;;17.10;82.00;;;;;;5114787;28;20016;-82
2022/01/04 03:43:51;;;;;;;1.55;0.70;;;17.10;82.00;;;;;;5096680;28;20119;-82
2022/01/04 03:46:18;;;;;;;0.70;0.35;;;17.10;81.90;;;;;;5114334;28;20024;-83
2022/01/04 03:48:44;;;;;;;0.65;0.40;;;17.10;81.90;;;;;;5114502;28;20035;-83
2022/01/04 03:51:10;;;;;;;0.88;0.40;;;17.10;81.90;;;;;;5114322;28;20034;-81
2022/01/04 03:53:36;;;;;;;1.17;0.50;;;17.10;81.80;;;;;;5114562;28;20102;-83
2022/01/04 03:56:03;;;;;;;1.23;0.60;;;17.10;81.80;;;;;;5114327;28;20023;-82
2022/01/04 03:58:29;;;;;;;0.55;0.32;;;17.10;81.80;;;;;;5114390;28;20023;-81
2022/01/04 04:00:55;;;;;;;0.80;0.40;;;17.20;81.80;;;;;;5114701;28;20031;-82
2022/01/04 04:03:20;;;;;;;1.00;0.40;;;17.10;81.70;;;;;;5113854;28;20412;-81
2022/01/04 04:05:46;;;;;;;1.77;0.40;;;17.20;81.70;;;;;;5114150;28;20028;-81
2022/01/04 04:08:12;;;;;;;0.45;0.30;;;17.20;81.70;;;;;;5114063;28;20388;-80
2022/01/04 04:10:37;;;;;;;1.30;0.40;;;17.20;81.70;;;;;;5114287;28;20117;-80
2022/01/04 04:13:03;;;;;;;1.90;0.50;;;17.20;81.60;;;;;;5113905;28;20070;-80
2022/01/04 04:15:29;;;;;;;1.05;0.52;;;17.20;81.60;;;;;;5114111;28;20016;-80
2022/01/04 04:17:55;;;;;;;0.45;0.32;;;17.20;81.50;;;;;;5114453;28;20020;-80
2022/01/04 04:20:21;;;;;;;0.82;0.35;;;17.20;81.40;;;;;;5113782;28;20026;-80
2022/01/04 04:22:47;;;;;;;1.08;0.40;;;17.20;81.40;;;;;;5113896;28;20479;-81
2022/01/04 04:25:13;;;;;;;1.05;0.40;;;17.20;81.40;;;;;;5095309;28;20020;-80
2022/01/04 04:27:39;;;;;;;0.80;0.32;;;17.20;81.40;;;;;;5113740;28;20471;-82
2022/01/04 04:30:06;;;;;;;3.45;0.70;;;17.20;81.40;;;;;;5113588;28;20118;-81
2022/01/04 04:32:31;;;;;;;1.30;0.52;;;17.20;81.40;;;;;;5113807;28;20383;-81
2022/01/04 04:34:57;;;;;;;1.42;0.60;;;17.20;81.40;;;;;;5113967;28;20115;-83
2022/01/04 04:37:23;;;;;;;2.30;0.50;;;17.20;81.40;;;;;;5114030;28;20059;-83
2022/01/04 04:39:49;;;;;;;0.98;0.47;;;17.20;81.30;;;;;;5113677;28;20051;-80
2022/01/04 04:42:15;;;;;;;1.70;0.60;;;17.20;81.30;;;;;;5113386;28;20058;-81
2022/01/04 04:44:41;;;;;;;1.23;0.55;;;17.20;81.30;;;;;;5095038;28;20066;-81
2022/01/04 04:47:07;;;;;;;1.45;0.70;;;17.20;81.20;;;;;;5095070;28;20027;-81
2022/01/04 04:49:32;;;;;;;1.08;0.57;;;17.20;81.20;;;;;;5095132;28;20044;-81
2022/01/04 04:51:59;;;;;;;1.58;0.50;;;17.10;81.10;;;;;;5113261;28;20030;-81
2022/01/04 04:54:26;;;;;;;2.63;0.60;;;17.20;81.20;;;;;;5113696;28;20398;-80
2022/01/04 04:56:52;;;;;;;1.63;0.60;;;17.20;81.10;;;;;;5113425;28;20024;-80
2022/01/04 04:59:17;;;;;;;2.15;0.50;;;17.20;81.10;;;;;;5094834;28;20536;-80
2022/01/04 05:01:44;;;;;;;5.70;0.70;;;17.20;81.10;;;;;;5113157;28;20084;-81
2022/01/04 05:04:10;;;;;;;1.67;0.40;;;17.20;81.10;;;;;;5112922;28;20054;-80
2022/01/04 05:06:35;;;;;;;1.67;0.50;;;17.20;81.00;;;;;;5113153;28;20027;-81
2022/01/04 05:09:01;;;;;;;0.68;0.40;;;17.20;81.10;;;;;;5112793;28;20042;-81
2022/01/04 05:11:27;;;;;;;3.17;0.57;;;17.20;81.00;;;;;;5095057;28;20031;-81
2022/01/04 05:13:53;;;;;;;1.33;0.50;;;17.20;81.00;;;;;;5113239;28;20020;-81
2022/01/04 05:16:19;;;;;;;2.65;0.60;;;17.20;81.00;;;;;;5112730;28;20023;-81
2022/01/04 05:18:44;;;;;;;0.77;0.40;;;17.20;81.00;;;;;;5112839;28;20119;-81
2022/01/04 05:21:10;;;;;;;1.30;0.60;;;17.20;81.00;;;;;;5112504;28;20019;-80
2022/01/04 05:23:35;;;;;;;1.05;0.40;;;17.20;80.90;;;;;;5094632;28;20028;-81
2022/01/04 05:26:02;;;;;;;1.58;0.45;;;17.20;80.90;;;;;;5112443;28;20020;-81
2022/01/04 05:28:27;;;;;;;0.80;0.40;;;17.20;80.90;;;;;;5112397;28;20118;-81
2022/01/04 05:30:53;;;;;;;1.08;0.50;;;17.20;80.80;;;;;;5094534;28;20108;-81
2022/01/04 05:33:18;;;;;;;1.08;0.63;;;17.20;80.90;;;;;;5094049;28;20032;-81
2022/01/04 05:35:44;;;;;;;1.02;0.40;;;17.20;80.80;;;;;;5112642;28;20070;-81
2022/01/04 05:38:10;;;;;;;0.57;0.40;;;17.10;80.70;;;;;;5112311;28;20065;-81
2022/01/04 05:40:35;;;;;;;3.15;0.60;;;17.20;80.70;;;;;;5094193;28;20024;-80
2022/01/04 05:43:02;;;;;;;0.50;0.40;;;17.20;81.50;;;;;;5094105;28;20028;-80
2022/01/04 05:45:28;;;;;;;2.13;0.55;;;17.20;80.70;;;;;;5112567;28;20028;-81
2022/01/04 05:47:54;;;;;;;1.73;0.60;;;17.20;80.60;;;;;;5112699;28;20028;-81
2022/01/04 05:50:20;;;;;;;0.60;0.32;;;17.20;80.60;;;;;;5112056;28;20502;-81
2022/01/04 05:52:45;;;;;;;1.48;0.47;;;17.20;80.60;;;;;;5112195;28;20364;-81
2022/01/04 05:55:11;;;;;;;1.70;0.60;;;17.20;80.60;;;;;;5111888;28;20437;-81
2022/01/04 05:57:37;;;;;;;1.48;0.60;;;17.20;80.50;;;;;;5093989;28;20050;-81
2022/01/04 06:00:05;;;;;;;1.25;0.30;;;17.20;80.50;;;;;;5111940;28;20502;-81
2022/01/04 06:02:31;;;;;;;0.82;0.57;;;17.20;80.40;;;;;;5112035;28;20016;-80
2022/01/04 06:04:56;;;;;;;0.80;0.50;;;17.30;80.50;;;;;;5112319;28;20054;-81
2022/01/04 06:07:22;;;;;;;2.35;0.40;;;17.30;80.50;;;;;;5093367;28;20392;-81
2022/01/04 06:09:50;;;;;;;0.93;0.40;;;17.30;80.40;;;;;;5111966;28;20118;-81
2022/01/04 06:14:52;;;;;;;0.80;0.30;;;17.30;80.30;;;;;;5111923;28;20160;-80
2022/01/04 06:17:19;;;;;;;1.17;0.47;;;17.30;80.20;;;;;;5111644;28;20368;-81
2022/01/04 06:19:45;;;;;;;1.17;0.50;;;17.30;80.20;;;;;;5076975;28;20387;-81
2022/01/04 06:22:11;;;;;;;0.30;0.30;;;17.30;80.20;;;;;;5111562;28;20023;-81
2022/01/04 06:24:37;;;;;;;0.55;0.40;;;17.40;80.20;;;;;;5111893;28;20023;-80
2022/01/04 06:27:12;;;;;;;0.77;0.40;;;17.30;80.10;;;;;;5093235;28;20059;-80
2022/01/04 06:29:39;;;;;;;1.33;0.50;;;17.40;80.10;;;;;;5111365;28;20494;-85
2022/01/04 06:32:06;;;;;;;1.20;0.60;;;17.40;80.10;;;;;;5093214;28;20028;-79
2022/01/04 06:34:31;;;;;;;2.05;0.50;;;17.40;80.00;;;;;;5111735;28;20034;-80
2022/01/04 06:36:57;;;;;;;1.58;0.40;;;17.40;80.00;;;;;;5093745;28;20390;-79
2022/01/04 06:39:23;;;;;;;0.40;0.40;;;17.40;79.90;;;;;;5094427;28;20554;-78
2022/01/04 06:41:48;;;;;;;2.17;0.35;;;17.40;79.90;;;;;;5115935;28;20024;-79
2022/01/04 06:44:14;;;;;;;0.93;0.50;;;17.40;79.80;;;;;;5115506;28;20067;-80
2022/01/04 06:46:45;;;;;;;0.60;0.40;;;17.40;79.70;;;;;;5115948;28;20089;-82
2022/01/04 06:49:12;;;;;;;1.00;0.52;;;17.40;79.70;;;;;;5115746;28;20036;-80
2022/01/04 06:51:38;;;;;;;3.20;0.47;;;17.50;79.70;;;;;;5115761;28;20016;-82
2022/01/04 06:54:04;;;;;;;0.95;0.38;;;17.50;79.90;;;;;;5115438;28;20032;-77
2022/01/04 06:56:30;;;;;;;1.38;0.40;;;17.50;80.20;;;;;;5115651;28;20027;-78
2022/01/04 06:58:55;;;;;;;1.35;0.50;;;17.50;80.50;;;;;;5097627;28;20031;-77
2022/01/04 07:01:22;;;;;;;2.65;0.40;;;17.60;80.70;;;;;;5115094;27;20530;-76
2022/01/04 07:03:48;;;;;;;2.17;0.50;;;17.60;80.80;;;;;;5129438;27;20856;-77
2022/01/04 07:06:13;;;;;;;1.98;0.40;;;17.60;80.90;;;;;;5135573;27;20023;-77
2022/01/04 07:08:39;;;;;;;3.50;0.50;;;17.60;81.00;;;;;;5135790;27;20038;-77
2022/01/04 07:11:05;;;;;;;3.22;0.50;;;17.60;80.70;;;;;;5135447;27;20498;-78
2022/01/04 07:13:31;;;;;;;2.17;0.47;;;17.60;80.90;;;;;;5127559;27;20077;-77
2022/01/04 07:15:56;;;;;;;3.03;0.75;;;17.60;81.00;;;;;;5120898;27;20405;-76
2022/01/04 07:18:22;;;;;;;1.95;0.52;;;17.60;81.00;;;;;;5119992;27;20403;-79
2022/01/04 07:20:48;;;;;;;2.58;0.63;;;17.60;81.00;;;;;;5135518;27;20034;-78
2022/01/04 07:23:13;;;;;;;1.33;0.30;;;17.60;80.70;;;;;;5135374;27;20055;-79
2022/01/04 07:25:39;;;;;;;1.88;0.50;;;17.60;80.60;;;;;;5128700;27;20103;-79
2022/01/04 07:28:05;;;;;;;4.65;0.50;;;17.60;80.70;;;;;;5115106;27;20032;-79
2022/01/04 07:30:30;;;;;;;6.88;0.95;;;17.60;80.60;;;;;;5115064;28;20068;-79
2022/01/04 07:32:56;;;;;;;1.60;0.70;;;17.60;80.40;;;;;;5115194;28;20036;-80
2022/01/04 07:35:22;;;;;;;6.05;0.60;;;17.70;80.50;;;;;;5113625;28;20503;-79
2022/01/04 07:37:47;;;;;;;3.47;0.60;;;17.60;80.50;;;;;;5113066;28;20027;-81
2022/01/04 07:40:13;;;;;;;6.28;0.85;;;17.60;80.50;;;;;;5113262;28;20050;-80
2022/01/04 07:42:39;;;;;;;2.70;0.60;;;17.60;80.40;;;;;;5114882;28;20473;-79
2022/01/04 07:45:05;;;;;;;3.55;0.60;;;17.60;80.60;;;;;;5115021;28;20074;-79
2022/01/04 07:47:31;;;;;;;1.67;0.40;;;17.60;80.50;;;;;;5114632;28;20074;-80
2022/01/04 07:49:56;;;;;;;1.63;0.93;;;17.60;80.30;;;;;;5114366;28;20055;-78
2022/01/04 07:52:22;;;;;;;1.20;0.75;;;17.60;82.00;;;;;;5114283;28;20059;-76
2022/01/04 07:54:48;;;;;;;2.03;0.50;;;17.60;81.30;;;;;;5113333;28;20553;-79
2022/01/04 07:57:13;;;;;;;1.65;0.52;;;17.60;80.90;;;;;;5112403;28;20031;-79
2022/01/04 07:59:39;;;;;;;3.53;0.90;;;17.60;81.00;;;;;;5112799;28;20034;-80
2022/01/04 08:02:05;;;;;;;1.40;0.40;;;17.50;81.00;;;;;;5112380;28;20478;-79
2022/01/04 08:04:31;;;;;;;2.75;0.75;;;17.60;81.10;;;;;;5112674;28;20020;-79
2022/01/04 08:06:56;;;;;;;1.73;0.68;;;17.50;81.00;;;;;;5095726;28;20030;-82
2022/01/04 08:09:22;;;;;;;2.90;0.50;;;17.50;81.00;;;;;;5095422;28;20028;-78
2022/01/04 08:11:47;;;;;;;2.05;0.50;;;17.40;80.90;;;;;;5095857;28;20024;-76
2022/01/04 08:14:14;;;;;;;2.33;0.52;;;17.40;81.10;;;;;;5113867;28;20035;-76
2022/01/04 08:16:39;;;;;;;1.48;0.60;;;17.40;80.90;;;;;;5114190;28;20030;-77
2022/01/04 08:19:05;;;;;;;1.48;0.60;;;17.40;80.90;;;;;;5113854;28;20020;-77
2022/01/04 08:21:31;;;;;;;0.98;0.50;;;17.40;80.90;;;;;;5112219;28;20032;-79
2022/01/04 08:23:56;;;;;;;1.70;0.50;;;17.30;80.90;;;;;;5121409;27;20030;-76
2022/01/04 08:26:22;;;;;;;2.45;0.50;;;17.30;80.80;;;;;;5116176;27;20035;-77
2022/01/04 08:28:48;;;;;;;1.55;0.57;;;17.30;80.80;;;;;;5114718;27;20035;-78
2022/01/04 08:31:13;;;;;;;1.35;0.50;;;17.30;80.80;;;;;;5114651;27;20387;-78
2022/01/04 08:33:39;;;;;;;2.85;0.80;;;17.30;80.70;;;;;;5113674;27;20098;-77
2022/01/04 08:36:07;;;;;;;2.47;0.75;;;17.30;80.60;;;;;;5112756;27;20075;-77
2022/01/04 08:38:33;;;;;;;1.38;0.55;;;17.30;80.60;;;;;;5094063;28;20548;-75
2022/01/04 08:40:58;;;;;;;1.15;0.38;;;17.20;80.50;;;;;;5112455;28;20043;-77
2022/01/04 08:43:26;;;;;;;4.28;0.85;;;17.30;80.50;;;;;;5112345;28;20020;-77
2022/01/04 08:45:52;;;;;;;0.93;0.52;;;17.20;81.10;;;;;;5113526;28;20024;-76
2022/01/04 08:48:18;;;;;;;1.23;0.50;;;17.20;80.30;;;;;;5113197;28;20083;-77
2022/01/04 08:50:44;;;;;;;1.17;0.60;;;17.20;80.20;;;;;;5113465;28;20146;-76
2022/01/04 08:53:11;;;;;;;2.67;0.60;;;17.20;80.20;;;;;;5113095;28;20023;-77
2022/01/04 08:55:38;;;;;;;1.10;0.32;;;17.20;80.10;;;;;;5113457;28;20031;-77
2022/01/04 08:58:04;;;;;;;1.58;0.65;;;17.20;80.20;;;;;;5112994;28;20030;-77
2022/01/04 09:00:29;;;;;;;1.83;0.60;;;17.20;80.20;;;;;;5113334;28;20027;-76
2022/01/04 09:02:55;;;;;;;1.92;0.57;;;17.10;80.00;;;;;;5112644;28;20531;-77
2022/01/04 09:05:21;;;;;;;0.77;0.40;;;17.10;80.00;;;;;;5093800;28;20019;-76
2022/01/04 09:07:46;;;;;;;1.00;0.40;;;17.10;80.10;;;;;;5111374;28;20059;-77
2022/01/04 09:10:12;;;;;;;0.88;0.57;;;17.10;80.00;;;;;;5111072;28;20049;-77
2022/01/04 09:15:28;;;;;;;1.13;0.70;;;17.10;80.10;;;;;;5111595;28;20024;-77
2022/01/04 09:20:37;;;;;;;3.05;0.52;;;17.00;79.90;;;;;;5112920;28;20116;-76
2022/01/04 09:23:03;;;;;;;3.13;0.55;;;17.00;79.90;;;;;;5112611;28;20032;-77
2022/01/04 09:25:28;;;;;;;2.97;0.60;;;17.00;79.90;;;;;;5112675;28;20035;-77
2022/01/04 09:27:54;;;;;;;1.15;0.47;;;17.00;79.90;;;;;;5112876;28;20023;-76
2022/01/04 09:30:20;;;;;;;2.10;0.50;;;17.00;79.80;;;;;;5112230;28;20028;-77
2022/01/04 09:32:45;;;;;;;2.25;0.60;;;17.00;79.70;;;;;;5111116;28;20030;-77
2022/01/04 09:35:12;;;;;;;1.90;0.55;;;17.00;79.70;;;;;;5094048;28;20019;-77
2022/01/04 09:37:38;;;;;;;0.60;0.30;;;17.00;79.70;;;;;;5094174;28;20028;-78
2022/01/04 09:40:05;;;;;;;3.15;0.60;;;17.00;79.60;;;;;;5112022;28;20023;-76
2022/01/04 09:42:31;;;;;;;1.05;0.45;;;17.00;79.60;;;;;;5112347;28;20023;-75
2022/01/04 09:44:57;;;;;;;0.50;0.35;;;17.00;79.60;;;;;;5112042;28;20127;-76
2022/01/04 09:47:23;;;;;;;0.82;0.50;;;17.00;79.50;;;;;;5112066;28;20107;-76
2022/01/04 09:49:48;;;;;;;0.95;0.40;;;16.90;79.60;;;;;;5112256;28;20500;-76
2022/01/04 09:52:21;;;;;;;0.50;0.40;;;16.90;79.60;;;;;;5112044;28;20047;-76
2022/01/04 09:54:51;;;;;;;2.15;0.60;;;16.90;79.50;;;;;;5111898;28;20188;-76
2022/01/04 09:57:17;;;;;;;1.90;0.40;;;16.90;79.50;;;;;;5112029;28;20037;-76
2022/01/04 09:59:43;;;;;;;0.95;0.50;;;16.90;79.50;;;;;;5112085;28;20483;-76
2022/01/04 10:02:20;;;;;;;1.10;0.50;;;16.90;79.50;;;;;;5093210;28;20027;-75
2022/01/04 10:04:46;;;;;;;2.10;0.50;;;16.90;79.50;;;;;;5111931;28;20027;-76
2022/01/04 10:07:13;;;;;;;2.30;0.40;;;16.90;79.50;;;;;;5111742;28;20020;-76
2022/01/04 10:09:48;;;;;;;0.63;0.40;;;16.80;79.50;;;;;;5111966;28;20028;-76
2022/01/04 10:12:16;;;;;;;2.00;0.63;;;16.80;79.60;;;;;;5111776;28;20030;-76
2022/01/04 10:14:46;;;;;;;0.70;0.38;;;16.80;79.70;;;;;;5111796;28;20035;-77
2022/01/04 10:17:15;;;;;;;1.00;0.60;;;16.80;79.80;;;;;;5111559;28;20016;-76
2022/01/04 10:19:46;;;;;;;1.20;0.40;;;16.80;79.80;;;;;;5111866;28;20020;-76
2022/01/04 10:22:18;;;;;;;0.93;0.40;;;16.80;79.70;;;;;;5111500;28;20062;-76
2022/01/04 10:24:49;;;;;;;0.80;0.50;;;;;;;;;;5111782;28;20030;-76
2022/01/04 10:27:30;;;;;;;1.65;0.47;;;16.90;99.90;;;;;;5093119;28;20498;-76
2022/01/04 10:30:16;;;;;;;1.17;0.52;;;16.90;99.90;;;;;;5112069;28;20176;-76
2022/01/04 10:32:43;;;;;;;0.85;0.40;;;16.90;99.90;;;;;;5111198;28;20020;-75
2022/01/04 10:35:08;;;;;;;3.53;0.80;;;16.90;99.90;;;;;;5111491;28;20426;-77
2022/01/04 10:37:40;;;;;;;1.67;0.52;;;16.90;99.90;;;;;;5111638;28;20028;-77
2022/01/04 10:40:08;;;;;;;0.82;0.50;;;16.90;99.90;;;;;;5111341;28;20020;-78
2022/01/04 10:42:33;;;;;;;1.63;0.60;;;16.80;99.90;;;;;;5111599;28;20020;-78
2022/01/04 10:45:19;;;;;;;1.33;0.40;;;16.90;99.90;;;;;;5111280;28;20076;-78
2022/01/04 10:47:44;;;;;;;0.73;0.40;;;16.80;99.90;;;;;;5111385;28;20076;-77
2022/01/04 10:50:10;;;;;;;1.63;0.50;;;16.80;99.90;;;;;;5093047;28;20027;-77
2022/01/04 10:52:36;;;;;;;1.30;0.52;;;16.80;99.90;;;;;;5093232;28;20406;-77
2022/01/04 10:55:34;;;;;;;1.00;0.45;;;16.80;99.90;;;;;;5111248;28;20016;-77
2022/01/04 10:58:02;;;;;;;1.20;0.60;;;16.80;99.90;;;;;;5110967;28;20371;-78
2022/01/04 11:00:29;;;;;;;1.05;0.57;;;16.80;99.90;;;;;;5111467;28;20027;-77
2022/01/04 11:02:58;;;;;;;2.75;0.40;;;16.80;99.90;;;;;;5111804;28;20030;-78
2022/01/04 11:05:24;;;;;;;1.15;0.50;;;16.80;99.90;;;;;;5111630;28;20027;-78
2022/01/04 11:08:02;;;;;;;0.57;0.40;;;16.80;99.90;;;;;;5111278;28;20034;-78
2022/01/04 11:10:29;;;;;;;3.47;0.70;;;16.80;99.90;;;;;;5092893;28;20086;-78
2022/01/04 11:12:59;;;;;;;1.42;0.50;;;16.80;99.90;;;;;;5111548;28;20432;-78
2022/01/04 11:15:25;;;;;;;2.00;0.80;;;16.80;99.90;;;;;;5111684;28;20023;-78
2022/01/04 11:17:51;;;;;;;2.97;0.80;;;16.80;99.90;;;;;;5111248;28;20023;-76
2022/01/04 11:20:17;;;;;;;7.20;1.33;;;16.80;99.90;;;;;;5111059;28;20368;-79
2022/01/04 11:22:48;;;;;;;4.43;1.23;;;16.80;99.90;;;;;;5111231;28;20031;-77
2022/01/04 11:25:21;;;;;;;7.95;1.80;;;16.90;99.90;;;;;;5111335;28;20051;-77
2022/01/04 11:27:48;;;;;;;5.55;1.40;;;16.90;99.90;;;;;;5096400;28;20027;-76
2022/01/04 11:30:17;;;;;;;7.38;1.20;;;16.90;99.90;;;;;;5114821;28;20032;-77
2022/01/04 11:32:48;;;;;;;5.00;1.10;;;16.90;99.90;;;;;;5115818;28;20072;-78
2022/01/04 11:35:20;;;;;;;9.27;2.30;;;17.00;99.90;;;;;;5115394;28;20452;-77
2022/01/04 11:38:12;;;;;;;4.85;2.22;;;17.00;99.90;;;;;;5114849;28;20074;-77
2022/01/04 11:40:42;;;;;;;9.02;1.98;;;16.90;99.90;;;;;;5110185;28;20047;-78
2022/01/04 11:43:32;;;;;;;5.13;1.75;;;17.00;99.90;;;;;;5114632;28;20030;-78
2022/01/04 11:45:58;;;;;;;6.55;1.70;;;17.10;99.90;;;;;;5114476;28;20028;-77
2022/01/04 11:48:38;;;;;;;5.18;1.88;;;17.20;99.90;;;;;;5115013;28;20040;-77
2022/01/04 11:51:06;;;;;;;4.90;1.55;;;17.20;99.90;;;;;;5114176;28;20031;-77
2022/01/04 11:53:33;;;;;;;3.70;1.77;;;17.30;99.90;;;;;;5114308;28;20019;-78
2022/01/04 11:56:04;;;;;;;4.63;1.45;;;17.30;99.90;;;;;;5114534;28;20024;-78
2022/01/04 11:59:00;;;;;;;5.55;1.80;;;;;;;;;;5095136;28;20122;-78
2022/01/04 12:01:27;;;;;;;5.13;1.63;;;;;;;;;;5091817;28;20034;-78
2022/01/04 12:03:54;;;;;;;5.53;1.50;;;;;;;;;;5113260;28;20031;-79
2022/01/04 12:06:21;;;;;;;4.75;1.77;;;;;;;;;;5112802;28;20475;-79
2022/01/04 12:08:54;;;;;;;5.93;1.35;;;;;;;;;;5112414;28;20124;-78
2022/01/04 12:11:26;;;;;;;2.22;1.10;;;;;;;;;;5110491;28;20023;-79
2022/01/04 12:13:52;;;;;;;2.50;0.80;;;;;;;;;;5112450;28;20076;-78
2022/01/04 12:16:30;;;;;;;4.63;1.10;;;;;;;;;;5112305;28;20477;-79
2022/01/04 12:18:57;;;;;;;5.25;0.88;;;;;;;;;;5110621;28;20055;-79
2022/01/04 12:21:26;;;;;;;3.17;1.05;;;;;;;;;;5113131;28;20024;-79
2022/01/04 12:23:53;;;;;;;2.45;0.80;;;;;;;;;;5113512;28;20020;-79
2022/01/04 12:26:20;;;;;;;3.00;0.98;;;;;;;;;;5113248;28;20123;-79
2022/01/04 12:29:06;;;;;;;3.17;0.88;;;;;;;;;;5113841;28;20032;-79
2022/01/04 12:31:33;;;;;;;2.75;0.70;;;;;;;;;;5114307;28;20027;-79
2022/01/04 12:34:01;;;;;;;2.17;0.80;;;;;;;;;;5095308;28;20065;-78
2022/01/04 12:36:34;;;;;;;2.97;0.70;;;;;;;;;;5114033;28;20020;-79
2022/01/04 12:39:01;;;;;;;4.82;1.15;;;;;;;;;;5113292;28;20065;-78
2022/01/04 12:41:30;;;;;;;2.78;0.75;;;;;;;;;;5095624;28;20055;-78
2022/01/04 12:43:56;;;;;;;2.40;0.90;;;;;;;;;;5113757;28;20441;-77
2022/01/04 12:46:26;;;;;;;4.38;0.80;;;;;;;;;;5113145;28;20481;-78
2022/01/04 12:48:55;;;;;;;5.63;1.50;;;;;;;;;;5095054;28;20035;-78
2022/01/04 12:51:44;;;;;;;4.57;0.80;;;;;;;;;;5113257;28;20495;-77
2022/01/04 12:54:11;;;;;;;5.93;0.80;;;;;;;;;;5094763;28;20539;-76
2022/01/04 12:57:00;;;;;;;3.00;0.85;;;;;;;;;;5113332;28;20019;-77
2022/01/04 12:59:26;;;;;;;3.30;0.82;;;;;;;;;;5100581;28;20040;-78
2022/01/04 13:02:01;;;;;;;2.35;0.80;;;;;;;;;;5113463;28;20522;-75
2022/01/04 13:04:28;;;;;;;5.40;1.08;;;;;;;;;;5113496;28;20037;-75
2022/01/04 13:06:55;;;;;;;3.65;0.80;;;;;;;;;;5113422;28;20016;-75
2022/01/04 13:09:22;;;;;;;2.35;0.80;;;;;;;;;;5112774;28;20035;-75
2022/01/04 13:11:52;;;;;;;3.55;1.10;;;;;;;;;;5113037;28;20491;-75
2022/01/04 13:14:28;;;;;;;2.20;0.70;;;;;;;;;;5094630;28;20487;-75
2022/01/04 13:17:20;;;;;;;3.00;0.65;;;;;;;;;;5113362;28;20030;-75
2022/01/04 13:19:47;;;;;;;3.42;1.02;;;;;;;;;;5108288;28;20126;-75
2022/01/04 13:22:17;;;;;;;4.13;0.77;;;;;;;;;;5112476;28;20023;-75
2022/01/04 13:24:46;;;;;;;1.92;0.70;;;;;;;;;;5112861;28;20053;-75